Langes Corner, Wisconsin
Current Conditions -  °F | °C
As of 5:19 AM on Monday 22 Dec 2014 (Local Time) from KGRB Reporting Station
Haze Haze  
Wind Chill: 29°   Ceiling: 2500
Heat Index: 35°   Visibility: 5mi
Dew Point: 31°   Wind: 8mph
Humidity: 85%   Direction: 150°SSE
Pressure: 29.92"   Gusts: NA
Location:  44.363°N, 87.8227°W
Report Text: KGRB 221119Z 15007KT 5SM BR BKN025 OVC043 02/M01 A2992 RMK AO2 T00171006
Loading
Personal Weather Stations






























Interactive Weather Map New forecast layout! Learn more

10-Day Weather Forecast

Advertisements
Track Severe Weather on mobile